createdAt,value
2022-11-30T00:02:26.704Z,8.40
2022-11-30T00:04:54.784Z,8.40
2022-11-30T00:07:22.887Z,8.50
2022-11-30T00:09:52.305Z,8.40
2022-11-30T00:12:20.333Z,8.40
2022-11-30T00:14:48.542Z,8.40
2022-11-30T00:17:17.305Z,8.40
2022-11-30T00:19:45.318Z,8.40
2022-11-30T00:22:13.442Z,8.40
2022-11-30T00:24:41.528Z,8.40
2022-11-30T00:27:10.945Z,8.40
2022-11-30T00:29:38.930Z,8.30
2022-11-30T00:32:07.138Z,8.30
2022-11-30T00:34:35.184Z,8.30
2022-11-30T00:37:03.179Z,8.30
2022-11-30T00:39:35.414Z,8.30
2022-11-30T00:42:03.839Z,8.30
2022-11-30T00:44:33.273Z,8.40
2022-11-30T00:47:01.283Z,8.40
2022-11-30T00:49:29.334Z,8.40
2022-11-30T00:51:57.357Z,8.40
2022-11-30T00:54:25.398Z,8.40
2022-11-30T00:56:53.447Z,8.40
2022-11-30T00:59:21.478Z,8.40
2022-11-30T01:01:50.906Z,8.40
2022-11-30T01:04:18.961Z,8.50
2022-11-30T01:06:47.018Z,8.50
2022-11-30T01:09:15.050Z,8.50
2022-11-30T01:11:43.093Z,8.50
2022-11-30T01:14:11.147Z,8.50
2022-11-30T01:16:39.270Z,8.50
2022-11-30T01:19:08.689Z,8.50
2022-11-30T01:21:36.690Z,8.50
2022-11-30T01:24:05.020Z,8.50
2022-11-30T01:26:33.030Z,8.50
2022-11-30T01:29:01.074Z,8.40
2022-11-30T01:31:29.085Z,8.40
2022-11-30T01:33:57.303Z,8.50
2022-11-30T01:36:27.931Z,8.50
2022-11-30T01:38:58.389Z,8.50
2022-11-30T01:41:28.527Z,8.50
2022-11-30T01:43:58.411Z,8.50
2022-11-30T01:46:32.419Z,8.50
2022-11-30T01:49:14.962Z,8.40
2022-11-30T01:51:46.904Z,8.40
2022-11-30T01:54:17.504Z,8.40
2022-11-30T01:56:49.589Z,8.40
2022-11-30T01:59:20.883Z,8.40
2022-11-30T02:01:49.270Z,8.40
2022-11-30T02:04:22.694Z,8.40
2022-11-30T02:06:52.349Z,8.40
2022-11-30T02:09:23.234Z,8.40
2022-11-30T02:11:51.794Z,8.40
2022-11-30T02:14:30.687Z,8.40
2022-11-30T02:17:09.590Z,8.40
2022-11-30T02:20:19.388Z,8.30
2022-11-30T02:23:09.859Z,8.40
2022-11-30T02:25:46.544Z,8.40
2022-11-30T02:28:49.368Z,8.30
2022-11-30T02:31:24.707Z,8.30
2022-11-30T02:33:56.829Z,8.40
2022-11-30T02:36:25.917Z,8.40
2022-11-30T02:38:54.162Z,8.40
2022-11-30T02:41:22.132Z,8.40
2022-11-30T02:43:50.306Z,8.40
2022-11-30T02:46:27.880Z,8.50
2022-11-30T02:49:03.537Z,8.50
2022-11-30T02:51:33.701Z,8.50
2022-11-30T02:54:01.785Z,8.50
2022-11-30T02:56:30.363Z,8.50
2022-11-30T02:58:58.417Z,8.50
2022-11-30T03:01:28.031Z,8.40
2022-11-30T03:03:56.117Z,8.40
2022-11-30T03:06:24.153Z,8.50
2022-11-30T03:08:52.157Z,8.50
2022-11-30T03:11:20.185Z,8.40
2022-11-30T03:13:48.230Z,8.40
2022-11-30T03:16:16.276Z,8.40
2022-11-30T03:18:46.768Z,8.40
2022-11-30T03:21:15.070Z,8.50
2022-11-30T03:23:43.067Z,8.40
2022-11-30T03:26:11.194Z,8.50
2022-11-30T03:28:39.432Z,8.40
2022-11-30T03:31:07.538Z,8.50
2022-11-30T03:33:35.577Z,8.40
2022-11-30T03:36:07.108Z,8.40
2022-11-30T03:38:35.782Z,8.40
2022-11-30T03:41:05.728Z,8.40
2022-11-30T03:43:33.940Z,8.40
2022-11-30T03:46:02.069Z,8.40
2022-11-30T03:48:30.648Z,8.40
2022-11-30T03:50:58.722Z,8.50
2022-11-30T03:53:28.179Z,8.50
2022-11-30T03:55:57.928Z,8.50
2022-11-30T03:58:26.716Z,8.50
2022-11-30T04:01:01.164Z,8.50
2022-11-30T04:03:29.544Z,8.50
2022-11-30T04:05:58.031Z,8.50
2022-11-30T04:08:28.462Z,8.50
2022-11-30T04:10:58.253Z,8.50
2022-11-30T04:13:27.259Z,8.50
2022-11-30T04:15:56.444Z,8.60
2022-11-30T04:18:26.240Z,8.50
2022-11-30T04:20:56.212Z,8.50
2022-11-30T04:23:25.526Z,8.50
2022-11-30T04:25:54.942Z,8.50
2022-11-30T04:28:23.044Z,8.50
2022-11-30T04:30:51.074Z,8.50
2022-11-30T04:33:19.082Z,8.50
2022-11-30T04:35:49.283Z,8.50
2022-11-30T04:38:17.297Z,8.50
2022-11-30T04:40:45.870Z,8.50
2022-11-30T04:43:15.535Z,8.50
2022-11-30T04:45:45.541Z,8.50
2022-11-30T04:48:14.446Z,8.50
2022-11-30T04:50:42.989Z,8.50
2022-11-30T04:53:11.412Z,8.50
2022-11-30T04:55:40.311Z,8.40
2022-11-30T04:58:08.602Z,8.40
2022-11-30T05:00:38.797Z,8.40
2022-11-30T05:03:06.884Z,8.40
2022-11-30T05:05:34.917Z,8.40
2022-11-30T05:08:03.063Z,8.40
2022-11-30T05:10:33.745Z,8.30
2022-11-30T05:13:01.766Z,8.30
2022-11-30T05:15:29.777Z,8.30
2022-11-30T05:18:01.222Z,8.30
2022-11-30T05:20:29.352Z,8.30
2022-11-30T05:22:57.435Z,8.20
2022-11-30T05:25:25.420Z,8.20
2022-11-30T05:27:53.436Z,8.30
2022-11-30T05:30:21.712Z,8.20
2022-11-30T05:32:49.779Z,8.20
2022-11-30T05:35:19.278Z,8.20
2022-11-30T05:37:47.295Z,8.20
2022-11-30T05:40:15.462Z,8.20
2022-11-30T05:42:43.491Z,8.30
2022-11-30T05:45:12.603Z,8.30
2022-11-30T05:47:40.627Z,8.30
2022-11-30T05:50:09.542Z,8.30
2022-11-30T05:52:38.939Z,8.30
2022-11-30T05:55:07.546Z,8.30
2022-11-30T05:57:37.528Z,8.30
2022-11-30T06:00:06.399Z,8.30
2022-11-30T06:02:34.592Z,8.30
2022-11-30T06:05:02.733Z,8.20
2022-11-30T06:07:30.825Z,8.20
2022-11-30T06:10:00.229Z,8.20
2022-11-30T06:12:28.304Z,8.20
2022-11-30T06:14:56.290Z,8.20
2022-11-30T06:17:24.329Z,8.10
2022-11-30T06:19:52.317Z,8.10
2022-11-30T06:22:20.408Z,8.10
2022-11-30T06:24:48.697Z,8.10
2022-11-30T06:27:18.441Z,8.10
2022-11-30T06:29:46.440Z,8.10
2022-11-30T06:32:14.497Z,8.10
2022-11-30T06:34:42.662Z,8.00
2022-11-30T06:37:10.713Z,8.00
2022-11-30T06:40:04.876Z,8.00
2022-11-30T06:42:30.087Z,8.00
2022-11-30T06:44:58.296Z,8.00
2022-11-30T06:47:26.493Z,8.10
2022-11-30T06:49:55.276Z,8.00
2022-11-30T06:52:23.320Z,8.00
2022-11-30T06:54:51.612Z,8.10
2022-11-30T06:57:19.645Z,8.00
2022-11-30T06:59:49.026Z,8.00
2022-11-30T07:02:18.738Z,8.10
2022-11-30T07:04:47.496Z,8.10
2022-11-30T07:07:15.870Z,8.10
2022-11-30T07:09:43.919Z,8.10
2022-11-30T07:12:12.161Z,8.10
2022-11-30T07:14:40.172Z,8.20
2022-11-30T07:17:09.558Z,8.20
2022-11-30T07:19:37.574Z,8.20
2022-11-30T07:22:05.598Z,8.20
2022-11-30T07:24:51.142Z,8.10
2022-11-30T07:27:19.298Z,8.20
2022-11-30T07:29:48.888Z,8.10
2022-11-30T07:32:18.421Z,8.20
2022-11-30T07:34:47.128Z,8.20
2022-11-30T07:37:15.488Z,8.20
2022-11-30T07:39:43.547Z,8.20
2022-11-30T07:42:11.557Z,8.20
2022-11-30T07:44:39.579Z,8.20
2022-11-30T07:47:07.617Z,8.20
2022-11-30T07:49:38.961Z,8.20
2022-11-30T07:52:06.994Z,8.20
2022-11-30T07:54:35.042Z,8.30
2022-11-30T07:57:03.080Z,8.30
2022-11-30T07:59:31.124Z,8.30
2022-11-30T08:02:00.519Z,8.30
2022-11-30T08:04:28.617Z,8.30
2022-11-30T08:06:59.077Z,8.30
2022-11-30T08:09:27.146Z,8.30
2022-11-30T08:11:55.218Z,8.30
2022-11-30T08:14:23.222Z,8.30
2022-11-30T08:16:51.793Z,8.40
2022-11-30T08:19:19.958Z,8.40
2022-11-30T08:21:47.968Z,8.40
2022-11-30T08:24:17.581Z,8.40
2022-11-30T08:26:45.969Z,8.50
2022-11-30T08:29:13.994Z,8.50
2022-11-30T08:31:42.023Z,8.60
2022-11-30T08:34:12.930Z,8.50
2022-11-30T08:36:41.955Z,8.60
2022-11-30T08:39:13.003Z,8.60
2022-11-30T08:41:42.472Z,8.60
2022-11-30T08:44:11.129Z,8.60
2022-11-30T08:46:54.507Z,8.70
2022-11-30T08:49:24.736Z,8.60
2022-11-30T08:54:45.323Z,8.70
2022-11-30T08:57:15.630Z,8.70
2022-11-30T08:59:43.645Z,8.70
2022-11-30T09:02:12.318Z,8.70
2022-11-30T09:04:40.488Z,8.70
2022-11-30T09:07:09.522Z,8.80
2022-11-30T09:09:37.830Z,8.80
2022-11-30T09:12:06.208Z,8.80
2022-11-30T09:14:35.607Z,8.80
2022-11-30T09:17:03.910Z,8.90
2022-11-30T09:19:31.942Z,8.90
2022-11-30T09:22:00.562Z,8.90
2022-11-30T09:24:28.629Z,8.90
2022-11-30T09:26:57.828Z,9.00
2022-11-30T09:29:25.872Z,9.00
2022-11-30T09:31:55.253Z,9.10
2022-11-30T09:34:23.310Z,9.10
2022-11-30T09:36:51.324Z,9.10
2022-11-30T09:39:20.213Z,9.00
2022-11-30T09:42:05.766Z,9.10
2022-11-30T09:44:40.617Z,9.10
2022-11-30T09:47:27.542Z,9.10
2022-11-30T09:50:02.480Z,9.10
2022-11-30T09:52:35.713Z,9.20
2022-11-30T09:55:09.162Z,9.20
2022-11-30T09:57:45.102Z,9.20
2022-11-30T10:00:16.480Z,9.10
2022-11-30T10:02:46.793Z,9.10
2022-11-30T10:05:16.957Z,9.10
2022-11-30T10:08:13.561Z,9.10
2022-11-30T10:10:45.119Z,9.10
2022-11-30T10:13:39.281Z,9.00
2022-11-30T10:16:15.058Z,9.00
2022-11-30T10:18:52.444Z,9.10
2022-11-30T10:21:37.401Z,9.00
2022-11-30T10:24:23.125Z,9.10
2022-11-30T10:26:55.498Z,9.10
2022-11-30T10:29:31.511Z,9.10
2022-11-30T10:32:01.406Z,9.00
2022-11-30T10:34:35.823Z,9.00
2022-11-30T10:37:12.227Z,8.90
2022-11-30T10:39:45.120Z,8.90
2022-11-30T10:42:17.448Z,8.80
2022-11-30T10:44:50.680Z,8.80
2022-11-30T10:47:23.468Z,8.80
2022-11-30T10:49:53.976Z,8.70
2022-11-30T10:52:26.756Z,8.70
2022-11-30T10:55:02.243Z,8.70
2022-11-30T10:57:33.472Z,8.80
2022-11-30T11:00:06.417Z,8.90
2022-11-30T11:02:45.228Z,8.90
2022-11-30T11:05:21.492Z,8.90
2022-11-30T11:07:59.835Z,8.90
2022-11-30T11:10:35.327Z,9.00
2022-11-30T11:13:03.615Z,9.00
2022-11-30T11:15:33.540Z,9.10
2022-11-30T11:18:22.365Z,9.10
2022-11-30T11:21:06.005Z,9.20
2022-11-30T11:23:39.776Z,9.20
2022-11-30T11:26:09.558Z,9.30
2022-11-30T11:28:39.392Z,9.20
2022-11-30T11:31:19.970Z,9.20
2022-11-30T11:33:53.222Z,9.30
2022-11-30T11:36:28.132Z,9.30
2022-11-30T11:38:56.573Z,9.40
2022-11-30T11:41:27.869Z,9.40
2022-11-30T11:44:03.327Z,9.40
2022-11-30T11:46:33.151Z,9.50
2022-11-30T11:49:04.703Z,9.40
2022-11-30T11:51:36.173Z,9.40
2022-11-30T11:54:17.662Z,9.40
2022-11-30T11:56:46.376Z,9.30
2022-11-30T11:59:19.114Z,9.30
2022-11-30T12:01:56.060Z,9.30
2022-11-30T12:04:46.924Z,9.30
2022-11-30T12:07:32.689Z,9.30
2022-11-30T12:10:49.984Z,9.30
2022-11-30T12:13:14.197Z,9.30
2022-11-30T12:15:58.616Z,9.20
2022-11-30T12:18:32.975Z,9.20
2022-11-30T12:21:03.682Z,9.20
2022-11-30T12:24:04.668Z,9.10
2022-11-30T12:26:39.151Z,9.10
2022-11-30T12:29:21.519Z,9.10
2022-11-30T12:32:02.199Z,9.20
2022-11-30T12:34:43.701Z,9.20
2022-11-30T12:37:21.987Z,9.20
2022-11-30T12:40:01.527Z,9.10
2022-11-30T12:42:38.626Z,9.10
2022-11-30T12:45:17.210Z,9.00
2022-11-30T12:47:54.281Z,9.00
2022-11-30T12:50:38.466Z,9.00
2022-11-30T12:53:16.361Z,8.90
2022-11-30T12:55:55.738Z,8.90
2022-11-30T12:58:32.239Z,9.00
2022-11-30T13:01:12.168Z,9.00
2022-11-30T13:03:46.321Z,9.00
2022-11-30T13:06:18.207Z,9.00
2022-11-30T13:08:53.600Z,9.00
2022-11-30T13:11:27.824Z,9.10
2022-11-30T13:13:58.496Z,9.10
2022-11-30T13:16:27.522Z,9.10
2022-11-30T13:19:00.361Z,9.10
2022-11-30T13:21:33.986Z,9.10
2022-11-30T13:24:09.887Z,9.10
2022-11-30T13:26:45.027Z,9.10
2022-11-30T13:29:36.239Z,9.10
2022-11-30T13:32:27.542Z,9.10
2022-11-30T13:35:41.602Z,9.00
2022-11-30T13:41:09.171Z,9.10
2022-11-30T13:43:44.699Z,9.10
2022-11-30T13:46:19.747Z,9.00
2022-11-30T13:48:48.663Z,8.90
2022-11-30T13:51:38.451Z,9.00
2022-11-30T13:54:40.559Z,9.10
2022-11-30T13:57:18.504Z,9.10
2022-11-30T13:59:49.670Z,9.00
2022-11-30T14:02:58.155Z,9.00
2022-11-30T14:05:41.761Z,9.00
2022-11-30T14:08:18.663Z,8.90
2022-11-30T14:10:48.259Z,8.90
2022-11-30T14:13:33.420Z,8.80
2022-11-30T14:16:03.994Z,8.80
2022-11-30T14:18:40.926Z,8.80
2022-11-30T14:21:32.574Z,8.70
2022-11-30T14:24:05.029Z,8.70
2022-11-30T14:26:39.389Z,8.70
2022-11-30T14:29:17.672Z,8.70
2022-11-30T14:31:55.643Z,8.80
2022-11-30T14:34:27.704Z,8.70
2022-11-30T14:37:00.491Z,8.70
2022-11-30T14:39:33.534Z,8.60
2022-11-30T14:42:02.545Z,8.60
2022-11-30T14:44:35.690Z,8.60
2022-11-30T14:47:16.441Z,8.60
2022-11-30T14:49:48.314Z,8.60
2022-11-30T14:52:22.628Z,8.50
2022-11-30T14:54:57.428Z,8.60
2022-11-30T14:57:33.065Z,8.60
2022-11-30T15:00:01.568Z,8.60
2022-11-30T15:02:35.662Z,8.50
2022-11-30T15:05:06.894Z,8.50
2022-11-30T15:07:36.125Z,8.50
2022-11-30T15:10:07.886Z,8.50
2022-11-30T15:12:37.615Z,8.50
2022-11-30T15:15:18.521Z,8.50
2022-11-30T15:17:54.503Z,8.40
2022-11-30T15:20:30.806Z,8.40
2022-11-30T15:22:59.550Z,8.40
2022-11-30T15:25:34.821Z,8.40
2022-11-30T15:28:04.795Z,8.30
2022-11-30T15:30:35.616Z,8.30
2022-11-30T15:33:05.240Z,8.30
2022-11-30T15:35:50.410Z,8.30
2022-11-30T15:38:24.875Z,8.30
2022-11-30T15:40:56.036Z,8.30
2022-11-30T15:43:26.909Z,8.20
2022-11-30T15:45:58.072Z,8.20
2022-11-30T15:48:31.763Z,8.10
2022-11-30T15:51:01.288Z,8.10
2022-11-30T15:53:32.207Z,8.10
2022-11-30T15:56:02.966Z,8.10
2022-11-30T15:58:34.434Z,8.00
2022-11-30T16:01:06.101Z,8.00
2022-11-30T16:03:58.025Z,8.00
2022-11-30T16:06:27.847Z,8.00
2022-11-30T16:08:56.978Z,8.00
2022-11-30T16:11:25.070Z,8.00
2022-11-30T16:13:53.119Z,7.90
2022-11-30T16:16:24.001Z,7.90
2022-11-30T16:18:53.441Z,8.00
2022-11-30T16:21:21.897Z,7.90
2022-11-30T16:23:50.271Z,7.90
2022-11-30T16:29:07.979Z,7.90
2022-11-30T16:31:37.360Z,8.00
2022-11-30T16:34:08.715Z,8.00
2022-11-30T16:36:39.108Z,7.90
2022-11-30T16:39:09.238Z,7.90
2022-11-30T16:41:37.274Z,7.90
2022-11-30T16:44:12.945Z,7.90
2022-11-30T16:46:41.078Z,7.90
2022-11-30T16:49:10.443Z,7.90
2022-11-30T16:51:38.527Z,7.80
2022-11-30T16:54:06.644Z,7.90
2022-11-30T16:56:34.760Z,7.90
2022-11-30T16:59:02.762Z,7.90
2022-11-30T17:01:36.101Z,7.90
2022-11-30T17:04:16.898Z,7.90
2022-11-30T17:06:50.252Z,7.90
2022-11-30T17:09:19.289Z,7.90
2022-11-30T17:11:50.369Z,7.90
2022-11-30T17:14:19.220Z,7.90
2022-11-30T17:16:47.332Z,7.90
2022-11-30T17:19:15.417Z,7.90
2022-11-30T17:21:44.792Z,8.00
2022-11-30T17:24:14.560Z,7.90
2022-11-30T17:26:42.591Z,8.00
2022-11-30T17:29:10.721Z,7.90
2022-11-30T17:31:38.821Z,8.00
2022-11-30T17:34:08.584Z,8.00
2022-11-30T17:36:36.625Z,8.00
2022-11-30T17:39:06.959Z,8.00
2022-11-30T17:41:36.332Z,8.00
2022-11-30T17:44:04.479Z,8.00
2022-11-30T17:46:32.506Z,8.00
2022-11-30T17:49:00.542Z,8.00
2022-11-30T17:51:28.582Z,8.00
2022-11-30T17:53:56.657Z,8.00
2022-11-30T17:56:25.960Z,8.00
2022-11-30T17:58:55.436Z,8.00
2022-11-30T18:01:24.893Z,8.00
2022-11-30T18:03:53.860Z,7.90
2022-11-30T18:06:22.334Z,7.90
2022-11-30T18:08:50.377Z,7.90
2022-11-30T18:11:20.882Z,7.90
2022-11-30T18:13:50.000Z,8.00
2022-11-30T18:16:22.470Z,8.00
2022-11-30T18:18:50.484Z,8.00
2022-11-30T18:21:20.680Z,7.90
2022-11-30T18:23:49.205Z,7.90
2022-11-30T18:26:18.932Z,7.90
2022-11-30T18:28:47.909Z,7.90
2022-11-30T18:31:15.921Z,7.90
2022-11-30T18:33:45.392Z,7.90
2022-11-30T18:36:13.658Z,7.90
2022-11-30T18:38:42.452Z,7.90
2022-11-30T18:41:11.254Z,7.90
2022-11-30T18:43:39.952Z,7.90
2022-11-30T18:46:10.000Z,7.80
2022-11-30T18:48:38.596Z,7.80
2022-11-30T18:51:15.719Z,7.80
2022-11-30T18:53:44.432Z,7.80
2022-11-30T18:56:14.561Z,7.70
2022-11-30T18:58:42.918Z,7.70
2022-11-30T19:01:13.406Z,7.70
2022-11-30T19:03:41.803Z,7.70
2022-11-30T19:06:11.421Z,7.70
2022-11-30T19:08:42.133Z,7.70
2022-11-30T19:11:11.302Z,7.70
2022-11-30T19:13:39.294Z,7.70
2022-11-30T19:16:09.599Z,7.70
2022-11-30T19:18:38.437Z,7.70
2022-11-30T19:21:10.206Z,7.70
2022-11-30T19:23:39.113Z,7.70
2022-11-30T19:26:10.077Z,7.70
2022-11-30T19:28:39.723Z,7.70
2022-11-30T19:31:09.515Z,7.70
2022-11-30T19:33:38.186Z,7.70
2022-11-30T19:36:09.411Z,7.70
2022-11-30T19:38:37.418Z,7.80
2022-11-30T19:41:11.674Z,7.80
2022-11-30T19:43:40.089Z,7.80
2022-11-30T19:46:10.047Z,7.80
2022-11-30T19:48:38.614Z,7.80
2022-11-30T19:51:10.056Z,7.80
2022-11-30T19:53:42.301Z,7.80
2022-11-30T19:56:14.525Z,7.80
2022-11-30T19:58:43.832Z,7.80
2022-11-30T20:01:13.585Z,7.80
2022-11-30T20:03:41.940Z,7.90
2022-11-30T20:06:10.013Z,7.90
2022-11-30T20:08:39.082Z,7.90
2022-11-30T20:11:07.939Z,7.90
2022-11-30T20:13:37.907Z,7.90
2022-11-30T20:16:10.154Z,7.80
2022-11-30T20:18:42.679Z,7.80
2022-11-30T20:21:15.965Z,7.80
2022-11-30T20:23:45.343Z,7.80
2022-11-30T20:26:15.993Z,7.70
2022-11-30T20:28:45.917Z,7.70
2022-11-30T20:31:15.614Z,7.70
2022-11-30T20:33:44.428Z,7.70
2022-11-30T20:36:13.293Z,7.70
2022-11-30T20:38:41.527Z,7.70
2022-11-30T20:41:12.023Z,7.70
2022-11-30T20:43:40.170Z,7.70
2022-11-30T20:46:17.280Z,7.70
2022-11-30T20:48:45.859Z,7.60
2022-11-30T20:51:32.443Z,7.60
2022-11-30T20:54:01.795Z,7.70
2022-11-30T20:56:29.880Z,7.70
2022-11-30T20:59:01.257Z,7.70
2022-11-30T21:01:31.183Z,7.70
2022-11-30T21:04:00.665Z,7.70
2022-11-30T21:06:29.177Z,7.70
2022-11-30T21:08:57.246Z,7.70
2022-11-30T21:11:25.993Z,7.60
2022-11-30T21:13:54.467Z,7.60
2022-11-30T21:16:28.108Z,7.60
2022-11-30T21:18:59.637Z,7.60
2022-11-30T21:21:30.602Z,7.60
2022-11-30T21:24:00.103Z,7.60
2022-11-30T21:26:30.463Z,7.60
2022-11-30T21:29:01.650Z,7.60
2022-11-30T21:31:30.083Z,7.60
2022-11-30T21:34:00.033Z,7.60
2022-11-30T21:36:28.530Z,7.60
2022-11-30T21:39:04.123Z,7.50
2022-11-30T21:41:34.367Z,7.50
2022-11-30T21:44:02.586Z,7.50
2022-11-30T21:46:30.908Z,7.50
2022-11-30T21:49:00.431Z,7.50
2022-11-30T21:51:30.114Z,7.50
2022-11-30T21:54:00.003Z,7.60
2022-11-30T21:56:29.844Z,7.60
2022-11-30T21:58:58.585Z,7.60
2022-11-30T22:01:29.209Z,7.60
2022-11-30T22:03:59.495Z,7.60
2022-11-30T22:06:30.811Z,7.70
2022-11-30T22:09:03.382Z,7.60
2022-11-30T22:11:32.350Z,7.60
2022-11-30T22:14:00.516Z,7.70
2022-11-30T22:16:35.619Z,7.60
2022-11-30T22:19:06.036Z,7.60
2022-11-30T22:21:36.208Z,7.50
2022-11-30T22:24:06.160Z,7.50
2022-11-30T22:26:35.717Z,7.50
2022-11-30T22:29:05.666Z,7.50
2022-11-30T22:31:35.917Z,7.50
2022-11-30T22:34:04.205Z,7.50
2022-11-30T22:36:33.610Z,7.40
2022-11-30T22:39:05.522Z,7.40
2022-11-30T22:41:33.783Z,7.40
2022-11-30T22:44:02.138Z,7.40
2022-11-30T22:46:32.614Z,7.40
2022-11-30T22:49:01.236Z,7.40
2022-11-30T22:51:30.669Z,7.40
2022-11-30T22:53:59.840Z,7.40
2022-11-30T22:56:31.262Z,7.40
2022-11-30T22:59:01.053Z,7.40
2022-11-30T23:01:30.699Z,7.40
2022-11-30T23:04:02.969Z,7.40
2022-11-30T23:06:31.133Z,7.40
2022-11-30T23:08:59.490Z,7.40
2022-11-30T23:11:29.762Z,7.40
2022-11-30T23:13:57.946Z,7.40
2022-11-30T23:16:26.249Z,7.30
2022-11-30T23:18:57.270Z,7.30
2022-11-30T23:21:29.967Z,7.30
2022-11-30T23:23:59.929Z,7.30
2022-11-30T23:26:31.161Z,7.30
2022-11-30T23:29:02.017Z,7.30
2022-11-30T23:31:35.177Z,7.30
2022-11-30T23:34:06.057Z,7.30
2022-11-30T23:36:34.522Z,7.30
2022-11-30T23:39:05.106Z,7.30
2022-11-30T23:41:34.562Z,7.30
2022-11-30T23:44:02.862Z,7.30
2022-11-30T23:46:31.314Z,7.30
2022-11-30T23:48:59.564Z,7.30
2022-11-30T23:51:27.802Z,7.30
2022-11-30T23:53:55.930Z,7.30
2022-11-30T23:56:24.905Z,7.20
2022-11-30T23:58:54.271Z,7.30
